Time;durP1;ratioP1;P1;durP2;ratioP2;P2;SDS_P1;SDS_P2;PMS_P1;PMS_P2;Temp;Humidity;BMP_temperature;BMP_pressure;BME280_temperature;BME280_humidity;BME280_pressure;Samples;Min_cycle;Max_cycle;Signal;HPM_P1;HPM_P2
2022/07/04 00:00:33;;;;;;;2.55;1.17;;;17.80;85.10;;;;;;2077598;28;20033;-69
2022/07/04 00:01:33;;;;;;;2.60;0.90;;;17.80;84.80;;;;;;2077611;28;20041;-69
2022/07/04 00:02:35;;;;;;;1.60;0.88;;;17.80;84.80;;;;;;2078823;28;20388;-69
2022/07/04 00:03:36;;;;;;;2.70;1.15;;;17.70;83.90;;;;;;2076108;28;20017;-69
2022/07/04 00:04:36;;;;;;;2.28;1.00;;;17.70;84.50;;;;;;2078182;28;20105;-69
2022/07/04 00:05:37;;;;;;;2.70;1.02;;;17.70;85.40;;;;;;2076473;28;20433;-69
2022/07/04 00:06:37;;;;;;;2.30;1.10;;;17.70;86.10;;;;;;2076699;28;20052;-69
2022/07/04 00:07:39;;;;;;;3.47;1.20;;;17.70;85.90;;;;;;2078073;28;20084;-69
2022/07/04 00:08:40;;;;;;;3.22;1.08;;;17.60;86.50;;;;;;2078240;28;20033;-69
2022/07/04 00:09:40;;;;;;;3.22;1.02;;;17.60;86.70;;;;;;2077428;28;20032;-69
2022/07/04 00:10:41;;;;;;;2.75;1.10;;;17.60;86.90;;;;;;2078416;28;20547;-69
2022/07/04 00:11:42;;;;;;;2.88;1.00;;;17.60;86.90;;;;;;2073017;28;20040;-69
2022/07/04 00:12:43;;;;;;;3.20;1.25;;;17.60;87.90;;;;;;2075089;28;20513;-69
2022/07/04 00:13:44;;;;;;;1.83;0.93;;;17.60;88.70;;;;;;2075295;28;20025;-69
2022/07/04 00:14:44;;;;;;;1.25;0.80;;;17.50;88.50;;;;;;2074064;28;20025;-69
2022/07/04 00:15:45;;;;;;;2.45;1.00;;;17.50;88.60;;;;;;2076892;28;20044;-69
2022/07/04 00:16:46;;;;;;;2.53;1.08;;;17.50;89.00;;;;;;2079056;28;20041;-69
2022/07/04 00:17:46;;;;;;;1.55;0.98;;;17.50;89.10;;;;;;2075542;28;20030;-69
2022/07/04 00:18:47;;;;;;;1.55;0.90;;;17.50;89.10;;;;;;2077957;28;20018;-69
2022/07/04 00:19:47;;;;;;;1.05;0.63;;;17.40;89.00;;;;;;2074224;28;20036;-69
2022/07/04 00:20:48;;;;;;;3.00;1.08;;;17.40;87.80;;;;;;2075904;28;20033;-69
2022/07/04 00:21:49;;;;;;;1.20;0.70;;;17.40;89.00;;;;;;2076889;28;20087;-69
2022/07/04 00:22:49;;;;;;;1.88;1.00;;;17.40;89.80;;;;;;2078153;28;20100;-69
2022/07/04 00:23:50;;;;;;;1.20;0.73;;;17.40;90.10;;;;;;2079806;28;20093;-69
2022/07/04 00:24:51;;;;;;;2.28;1.17;;;17.40;90.20;;;;;;2077431;28;20032;-69
2022/07/04 00:25:51;;;;;;;1.85;1.00;;;17.30;90.30;;;;;;2077135;28;20030;-69
2022/07/04 00:26:52;;;;;;;1.83;1.20;;;17.30;90.30;;;;;;2078377;28;20062;-69
2022/07/04 00:27:52;;;;;;;3.40;1.17;;;17.30;90.30;;;;;;2074163;28;20033;-69
2022/07/04 00:28:53;;;;;;;1.70;1.10;;;17.30;90.80;;;;;;2073900;28;20056;-69
2022/07/04 00:29:54;;;;;;;1.38;0.70;;;17.30;91.20;;;;;;2075318;28;20033;-69
2022/07/04 00:30:55;;;;;;;2.30;0.90;;;17.20;90.80;;;;;;2074766;28;20022;-69
2022/07/04 00:31:55;;;;;;;9.25;1.00;;;17.20;91.20;;;;;;2078458;28;20100;-69
2022/07/04 00:32:56;;;;;;;2.00;0.93;;;17.20;91.50;;;;;;2074919;28;20032;-69
2022/07/04 00:33:56;;;;;;;2.00;0.95;;;17.20;91.40;;;;;;2074871;28;20040;-69
2022/07/04 00:34:57;;;;;;;1.67;1.00;;;17.20;91.30;;;;;;2074660;28;20021;-69
2022/07/04 00:35:58;;;;;;;2.80;1.13;;;17.20;91.00;;;;;;2073032;28;20030;-69
2022/07/04 00:36:59;;;;;;;1.38;0.75;;;17.20;91.60;;;;;;2076067;28;20077;-69
2022/07/04 00:37:59;;;;;;;4.05;0.77;;;17.10;91.60;;;;;;2078494;28;20037;-69
2022/07/04 00:39:00;;;;;;;1.02;0.90;;;17.10;91.70;;;;;;2078374;28;20385;-69
2022/07/04 00:40:00;;;;;;;1.70;0.82;;;17.10;92.40;;;;;;2078392;28;20525;-69
2022/07/04 00:41:01;;;;;;;0.95;0.88;;;17.10;92.60;;;;;;2078620;28;20017;-69
2022/07/04 00:42:02;;;;;;;0.88;0.80;;;17.10;92.30;;;;;;2077981;28;20177;-69
2022/07/04 00:43:04;;;;;;;1.98;0.90;;;17.00;92.90;;;;;;2079764;28;20032;-69
2022/07/04 00:44:06;;;;;;;1.50;1.00;;;17.00;93.20;;;;;;2075498;28;20477;-69
2022/07/04 00:45:08;;;;;;;1.35;1.00;;;17.00;93.30;;;;;;2079671;28;20041;-69
2022/07/04 00:46:08;;;;;;;1.55;0.98;;;17.00;93.20;;;;;;2078581;28;20424;-69
2022/07/04 00:47:09;;;;;;;1.23;0.85;;;17.00;93.20;;;;;;2078213;28;20021;-69
2022/07/04 00:48:10;;;;;;;1.42;0.93;;;17.00;93.10;;;;;;2077719;28;20018;-69
2022/07/04 00:49:11;;;;;;;1.55;0.88;;;17.00;92.80;;;;;;2076808;28;20022;-69
2022/07/04 00:50:12;;;;;;;1.50;1.00;;;17.00;92.70;;;;;;2077345;28;20033;-69
2022/07/04 00:51:13;;;;;;;1.00;0.98;;;16.90;93.00;;;;;;2075975;28;20030;-69
2022/07/04 00:52:14;;;;;;;4.68;1.33;;;16.90;92.50;;;;;;2078656;28;20055;-69
2022/07/04 00:53:16;;;;;;;1.08;0.90;;;16.90;93.00;;;;;;2078143;28;20480;-69
2022/07/04 00:54:18;;;;;;;1.38;0.90;;;16.90;93.60;;;;;;2077478;28;20025;-69
2022/07/04 00:55:19;;;;;;;1.52;1.00;;;16.90;93.80;;;;;;2075479;28;20109;-69
2022/07/04 00:56:22;;;;;;;1.58;0.88;;;16.90;94.30;;;;;;2079163;28;20522;-69
2022/07/04 00:57:23;;;;;;;1.98;1.05;;;16.90;94.80;;;;;;2078408;28;20030;-69
2022/07/04 00:58:23;;;;;;;2.35;1.00;;;16.80;94.60;;;;;;2075943;28;20029;-69
2022/07/04 00:59:24;;;;;;;1.70;0.80;;;16.80;94.90;;;;;;2074050;28;20026;-69
2022/07/04 01:00:25;;;;;;;3.42;1.10;;;16.80;95.20;;;;;;2073657;28;20022;-69
2022/07/04 01:01:26;;;;;;;1.80;1.15;;;16.80;94.40;;;;;;2079624;28;20559;-69
2022/07/04 01:02:26;;;;;;;1.95;1.17;;;16.80;95.30;;;;;;2078165;28;20026;-69
2022/07/04 01:03:27;;;;;;;1.60;0.93;;;16.80;95.60;;;;;;2077052;28;20436;-69
2022/07/04 01:04:27;;;;;;;2.10;1.00;;;16.80;96.40;;;;;;2077264;28;20445;-69
2022/07/04 01:05:28;;;;;;;2.47;1.00;;;16.70;96.70;;;;;;2076178;28;20053;-69
2022/07/04 01:06:30;;;;;;;1.42;0.90;;;16.70;95.90;;;;;;2076728;28;20029;-69
2022/07/04 01:07:31;;;;;;;2.15;1.05;;;16.70;95.90;;;;;;2077679;28;20021;-69
2022/07/04 01:08:31;;;;;;;1.80;1.23;;;16.70;96.30;;;;;;2077611;28;20021;-69
2022/07/04 01:09:33;;;;;;;1.40;1.02;;;16.70;97.00;;;;;;2077248;28;20495;-69
2022/07/04 01:10:33;;;;;;;3.10;1.02;;;16.70;97.30;;;;;;2077438;28;20034;-69
2022/07/04 01:11:34;;;;;;;2.20;1.10;;;16.70;97.50;;;;;;2078521;28;20040;-69
2022/07/04 01:12:35;;;;;;;2.67;1.15;;;16.70;98.10;;;;;;2077768;28;20112;-69
2022/07/04 01:13:36;;;;;;;1.08;0.80;;;16.70;98.30;;;;;;2076604;28;20456;-69
2022/07/04 01:14:38;;;;;;;1.38;0.98;;;16.70;98.40;;;;;;2076484;28;20030;-69
2022/07/04 01:15:39;;;;;;;2.97;0.93;;;16.70;98.40;;;;;;2077806;28;20112;-69
2022/07/04 01:16:39;;;;;;;1.23;1.13;;;16.70;98.50;;;;;;2077104;28;20029;-69
2022/07/04 01:17:40;;;;;;;1.30;1.00;;;16.70;98.10;;;;;;2076146;28;20022;-69
2022/07/04 01:18:41;;;;;;;3.03;1.13;;;16.70;98.50;;;;;;2077927;28;20052;-69
2022/07/04 01:19:41;;;;;;;2.55;0.98;;;16.70;98.90;;;;;;2077209;28;20049;-69
2022/07/04 01:20:43;;;;;;;3.75;0.77;;;16.70;98.90;;;;;;2076378;28;20033;-69
2022/07/04 01:21:43;;;;;;;1.42;0.90;;;16.70;99.20;;;;;;2076711;28;20021;-69
2022/07/04 01:22:44;;;;;;;1.35;0.82;;;16.70;98.60;;;;;;2076797;28;20022;-69
2022/07/04 01:23:44;;;;;;;4.28;1.02;;;16.70;98.10;;;;;;2077567;28;20118;-69
2022/07/04 01:24:45;;;;;;;1.90;0.90;;;16.70;98.60;;;;;;2077293;28;20075;-69
2022/07/04 01:25:46;;;;;;;1.60;1.10;;;16.70;99.20;;;;;;2078154;28;20075;-69
2022/07/04 01:26:47;;;;;;;2.10;1.13;;;16.70;99.90;;;;;;2078950;28;20710;-69
2022/07/04 01:27:47;;;;;;;2.42;1.10;;;16.60;99.70;;;;;;2080252;28;20035;-69
2022/07/04 01:28:48;;;;;;;1.75;1.00;;;16.60;99.90;;;;;;2075937;28;20026;-69
2022/07/04 01:29:51;;;;;;;1.10;0.80;;;16.60;99.90;;;;;;2084183;28;20082;-69
2022/07/04 01:30:52;;;;;;;2.05;1.00;;;16.60;99.90;;;;;;2083862;28;20029;-69
2022/07/04 01:31:53;;;;;;;3.40;1.20;;;16.60;99.90;;;;;;2076309;28;20034;-69
2022/07/04 01:32:54;;;;;;;2.40;1.00;;;16.60;99.90;;;;;;2078075;28;20575;-69
2022/07/04 01:33:55;;;;;;;2.05;1.10;;;16.60;99.90;;;;;;2078842;28;20029;-69
2022/07/04 01:34:55;;;;;;;2.17;0.95;;;16.60;99.90;;;;;;2079731;28;20030;-69
2022/07/04 01:35:56;;;;;;;1.65;1.13;;;16.60;99.90;;;;;;2072149;28;20414;-69
2022/07/04 01:36:59;;;;;;;2.05;0.93;;;16.60;99.90;;;;;;2069524;28;20022;-69
2022/07/04 01:38:00;;;;;;;3.30;0.93;;;16.60;99.90;;;;;;2078968;28;20030;-69
2022/07/04 01:39:02;;;;;;;1.63;1.08;;;16.50;99.90;;;;;;2077166;28;20111;-69
2022/07/04 01:40:03;;;;;;;1.40;1.02;;;16.50;99.80;;;;;;2077129;28;20504;-69
2022/07/04 01:41:04;;;;;;;1.50;1.10;;;16.50;99.90;;;;;;2077216;28;20132;-69
2022/07/04 01:42:05;;;;;;;2.03;1.40;;;16.50;99.90;;;;;;2077658;28;20120;-69
2022/07/04 01:43:06;;;;;;;4.18;1.30;;;16.50;99.90;;;;;;2078954;28;20389;-69
2022/07/04 01:44:06;;;;;;;4.00;1.42;;;16.50;99.90;;;;;;2079266;28;20125;-69
2022/07/04 01:45:09;;;;;;;4.15;1.25;;;16.50;99.90;;;;;;2076944;28;20061;-69
2022/07/04 01:46:09;;;;;;;1.83;1.10;;;16.50;99.90;;;;;;2078134;28;20481;-69
2022/07/04 01:47:10;;;;;;;2.38;1.20;;;16.40;99.90;;;;;;2078380;28;20092;-69
2022/07/04 01:48:12;;;;;;;1.83;0.85;;;16.40;99.90;;;;;;2081084;28;20465;-69
2022/07/04 01:49:13;;;;;;;7.38;1.20;;;16.40;99.90;;;;;;2078065;28;20622;-69
2022/07/04 01:50:13;;;;;;;2.88;1.10;;;16.40;99.90;;;;;;2079138;28;20523;-69
2022/07/04 01:51:14;;;;;;;2.20;1.23;;;16.40;99.90;;;;;;2077739;28;20104;-69
2022/07/04 01:52:15;;;;;;;1.63;1.10;;;16.40;99.90;;;;;;2077421;28;20033;-70
2022/07/04 01:53:16;;;;;;;3.08;1.23;;;16.40;99.90;;;;;;2077764;28;20531;-69
2022/07/04 01:54:17;;;;;;;1.52;1.02;;;16.40;99.90;;;;;;2076438;28;20384;-69
2022/07/04 01:55:17;;;;;;;2.33;1.10;;;16.40;99.90;;;;;;2081326;28;20030;-69
2022/07/04 01:56:18;;;;;;;1.23;1.13;;;16.40;99.90;;;;;;2077470;28;20116;-69
2022/07/04 01:57:19;;;;;;;3.75;1.13;;;16.30;99.90;;;;;;2078810;28;20029;-69
2022/07/04 01:58:19;;;;;;;2.88;1.23;;;16.40;99.90;;;;;;2076497;28;20040;-69
2022/07/04 02:01:29;;;;;;;2.40;1.25;;;16.30;99.90;;;;;;2078264;28;20404;-69
2022/07/04 02:13:03;;;;;;;2.03;1.40;;;16.00;99.90;;;;;;2078620;28;20029;-69
2022/07/04 02:14:03;;;;;;;4.13;1.92;;;16.00;99.90;;;;;;2077609;28;20040;-69
2022/07/04 02:15:05;;;;;;;1.98;1.17;;;16.00;99.90;;;;;;2078307;28;20045;-69
2022/07/04 02:16:05;;;;;;;1.60;1.42;;;16.00;99.90;;;;;;2074699;28;20079;-69
2022/07/04 02:17:06;;;;;;;0.95;0.90;;;16.00;99.90;;;;;;2070762;28;20087;-69
2022/07/04 02:18:10;;;;;;;2.13;1.20;;;16.10;99.90;;;;;;2067468;28;20049;-69
2022/07/04 02:19:10;;;;;;;2.60;1.65;;;16.10;99.90;;;;;;2077771;28;20533;-69
2022/07/04 02:20:11;;;;;;;3.00;1.27;;;16.10;99.90;;;;;;2074219;28;20393;-69
2022/07/04 02:21:13;;;;;;;2.47;1.58;;;16.00;99.90;;;;;;2079138;28;20508;-69
2022/07/04 02:22:14;;;;;;;2.53;1.27;;;16.10;99.90;;;;;;2076688;28;20025;-69
2022/07/04 02:23:14;;;;;;;1.67;1.30;;;16.00;99.90;;;;;;2077681;28;20382;-69
2022/07/04 02:24:15;;;;;;;1.90;1.40;;;16.10;99.90;;;;;;2076749;28;20033;-69
2022/07/04 02:25:16;;;;;;;3.10;1.50;;;16.00;99.90;;;;;;2075391;28;20026;-69
2022/07/04 02:26:16;;;;;;;3.78;1.50;;;16.10;99.90;;;;;;2077134;28;20028;-69
2022/07/04 02:27:17;;;;;;;3.40;1.33;;;16.00;99.90;;;;;;2075329;28;20026;-69
2022/07/04 02:28:18;;;;;;;2.67;1.58;;;16.00;99.90;;;;;;2078101;28;20034;-69
2022/07/04 02:29:19;;;;;;;3.60;1.63;;;16.00;99.90;;;;;;2077540;28;20083;-69
2022/07/04 02:30:19;;;;;;;2.70;1.38;;;16.10;99.90;;;;;;2078923;28;20033;-69
2022/07/04 02:31:20;;;;;;;2.85;1.45;;;16.10;99.90;;;;;;2080001;28;20037;-69
2022/07/04 02:32:21;;;;;;;3.75;1.80;;;16.10;99.90;;;;;;2080532;28;20027;-69
2022/07/04 02:33:21;;;;;;;2.03;1.50;;;16.10;99.90;;;;;;2080134;28;20029;-69
2022/07/04 02:34:22;;;;;;;2.80;1.40;;;16.10;99.90;;;;;;2079678;28;20061;-69
2022/07/04 02:35:23;;;;;;;2.42;1.30;;;16.10;99.90;;;;;;2076878;28;20083;-69
2022/07/04 02:36:23;;;;;;;2.50;1.50;;;16.10;99.90;;;;;;2078199;28;20026;-69
2022/07/04 02:37:24;;;;;;;2.50;1.60;;;16.10;99.90;;;;;;2077552;28;20076;-69
2022/07/04 02:38:24;;;;;;;2.10;1.17;;;16.10;99.90;;;;;;2079732;28;20030;-69
2022/07/04 02:39:25;;;;;;;4.60;1.48;;;16.00;99.90;;;;;;2079229;28;20027;-69
2022/07/04 02:40:26;;;;;;;2.85;1.33;;;16.10;99.90;;;;;;2077828;28;20025;-69
2022/07/04 02:41:26;;;;;;;2.22;1.33;;;16.10;99.90;;;;;;2078177;28;20034;-69
2022/07/04 02:42:32;;;;;;;2.72;1.52;;;16.00;99.90;;;;;;2075656;28;20033;-69
2022/07/04 02:43:32;;;;;;;2.08;1.20;;;16.00;99.90;;;;;;2079066;28;20036;-69
2022/07/04 02:44:33;;;;;;;2.17;1.33;;;16.00;99.90;;;;;;2075926;28;20045;-69
2022/07/04 02:45:33;;;;;;;2.28;1.75;;;16.00;99.90;;;;;;2078536;28;20477;-69
2022/07/04 02:46:34;;;;;;;2.97;1.27;;;16.00;99.90;;;;;;2078639;28;20493;-69
2022/07/04 02:47:35;;;;;;;4.15;1.50;;;16.00;99.90;;;;;;2078145;28;20782;-69
2022/07/04 02:48:35;;;;;;;2.65;1.67;;;16.00;99.90;;;;;;2079499;28;20030;-69
2022/07/04 02:49:36;;;;;;;3.20;1.45;;;16.00;99.90;;;;;;2078655;28;20556;-69
2022/07/04 02:50:36;;;;;;;2.30;1.20;;;15.90;99.90;;;;;;2079861;28;20104;-69
2022/07/04 02:51:37;;;;;;;2.58;1.60;;;15.90;99.90;;;;;;2080696;28;20437;-69
2022/07/04 02:52:38;;;;;;;1.67;1.30;;;15.90;99.90;;;;;;2079700;28;20500;-69
2022/07/04 02:53:38;;;;;;;2.17;1.10;;;15.90;99.90;;;;;;2079867;28;20051;-69
2022/07/04 02:54:39;;;;;;;5.88;1.65;;;15.90;99.90;;;;;;2077965;28;20032;-69
2022/07/04 02:55:40;;;;;;;4.47;1.48;;;16.00;99.90;;;;;;2077877;28;20109;-69
2022/07/04 02:56:41;;;;;;;3.03;1.13;;;15.90;99.90;;;;;;2077430;28;20025;-69
2022/07/04 02:57:41;;;;;;;1.95;1.30;;;15.90;99.90;;;;;;2078969;28;20108;-69
2022/07/04 02:58:42;;;;;;;1.30;1.20;;;15.90;99.90;;;;;;2078255;28;20725;-69
2022/07/04 02:59:42;;;;;;;2.55;1.52;;;15.90;99.90;;;;;;2078772;28;20116;-69
2022/07/04 03:00:43;;;;;;;2.78;1.65;;;15.90;99.90;;;;;;2078500;28;20087;-69
2022/07/04 03:01:44;;;;;;;1.60;1.30;;;15.90;99.90;;;;;;2078254;28;20643;-69
2022/07/04 03:02:44;;;;;;;1.83;1.58;;;15.90;99.90;;;;;;2079274;28;20025;-69
2022/07/04 03:03:45;;;;;;;2.28;1.60;;;15.90;99.90;;;;;;2078296;28;20024;-69
2022/07/04 03:04:46;;;;;;;2.80;1.40;;;15.80;99.90;;;;;;2077615;28;20389;-69
2022/07/04 03:05:47;;;;;;;2.42;1.50;;;15.80;99.90;;;;;;2076435;28;20042;-70
2022/07/04 03:06:47;;;;;;;2.22;1.77;;;15.80;99.90;;;;;;2078112;28;20068;-69
2022/07/04 03:07:48;;;;;;;2.58;1.50;;;15.80;99.90;;;;;;2076043;28;20025;-69
2022/07/04 03:08:48;;;;;;;2.85;1.73;;;15.80;99.90;;;;;;2080094;28;20021;-69
2022/07/04 03:09:49;;;;;;;3.38;1.60;;;15.80;99.90;;;;;;2079191;28;20029;-69
2022/07/04 03:10:51;;;;;;;4.10;1.77;;;15.70;99.90;;;;;;2076327;28;20469;-69
2022/07/04 03:11:51;;;;;;;2.97;2.28;;;15.70;99.90;;;;;;2077583;28;20029;-69
2022/07/04 03:12:52;;;;;;;2.78;1.58;;;15.70;99.90;;;;;;2077490;28;20032;-69
2022/07/04 03:13:52;;;;;;;1.65;1.48;;;15.70;99.90;;;;;;2076633;28;20091;-69
2022/07/04 03:14:53;;;;;;;1.48;1.13;;;15.70;99.90;;;;;;2077233;28;20401;-69
2022/07/04 03:15:54;;;;;;;1.80;1.40;;;15.70;99.90;;;;;;2076934;28;20041;-69
2022/07/04 03:16:55;;;;;;;3.78;1.60;;;15.70;99.90;;;;;;2071748;28;20030;-69
2022/07/04 03:17:55;;;;;;;5.10;1.63;;;15.70;99.90;;;;;;2071307;28;20025;-69
2022/07/04 03:18:56;;;;;;;3.45;1.90;;;15.60;99.90;;;;;;2077969;28;20198;-69
2022/07/04 03:19:57;;;;;;;3.47;1.50;;;15.60;99.90;;;;;;2078097;28;20049;-69
2022/07/04 03:20:58;;;;;;;4.38;1.60;;;15.60;99.90;;;;;;2076458;28;20040;-69
2022/07/04 03:21:59;;;;;;;2.35;1.50;;;15.60;99.90;;;;;;2079374;28;20024;-69
2022/07/04 03:22:59;;;;;;;3.35;1.60;;;15.60;99.90;;;;;;2078851;28;20028;-69
2022/07/04 03:24:00;;;;;;;1.95;1.23;;;15.60;99.90;;;;;;2075808;28;20152;-69
2022/07/04 03:25:00;;;;;;;1.85;1.38;;;15.50;99.90;;;;;;2078474;28;20067;-69
2022/07/04 03:26:02;;;;;;;1.67;1.40;;;15.50;99.90;;;;;;2076914;28;20482;-69
2022/07/04 03:27:03;;;;;;;2.45;1.35;;;15.50;99.90;;;;;;2078853;28;20079;-69
2022/07/04 03:28:04;;;;;;;2.72;1.65;;;15.50;99.90;;;;;;2076802;28;20037;-69
2022/07/04 03:29:04;;;;;;;4.78;1.70;;;15.50;99.90;;;;;;2077242;28;20144;-69
2022/07/04 03:30:05;;;;;;;3.88;1.77;;;15.50;99.90;;;;;;2075990;28;20032;-69
2022/07/04 03:31:06;;;;;;;3.83;1.75;;;15.40;99.90;;;;;;2076285;28;20037;-69
2022/07/04 03:32:07;;;;;;;3.17;1.70;;;15.40;99.90;;;;;;2077080;28;20049;-69
2022/07/04 03:33:08;;;;;;;1.55;1.45;;;15.40;99.90;;;;;;2077192;28;20531;-69
2022/07/04 03:34:08;;;;;;;3.70;2.08;;;15.40;99.90;;;;;;2077973;28;20671;-69
2022/07/04 03:35:09;;;;;;;2.10;1.70;;;15.40;99.90;;;;;;2076599;28;20013;-69
2022/07/04 03:36:10;;;;;;;3.65;1.60;;;15.40;99.90;;;;;;2077657;28;20047;-69
2022/07/04 03:37:10;;;;;;;3.15;2.22;;;15.40;99.90;;;;;;2076499;28;20378;-69
2022/07/04 03:38:11;;;;;;;2.58;1.77;;;15.40;99.90;;;;;;2077170;28;20049;-69
2022/07/04 03:39:12;;;;;;;2.63;2.08;;;15.40;99.90;;;;;;2079903;28;20036;-69
2022/07/04 03:40:12;;;;;;;3.45;1.95;;;15.40;99.90;;;;;;2079529;28;20504;-69
2022/07/04 03:41:13;;;;;;;4.07;1.98;;;15.30;99.90;;;;;;2075363;28;20040;-69
2022/07/04 03:42:14;;;;;;;4.18;2.05;;;15.30;99.90;;;;;;2076770;28;20076;-69
2022/07/04 03:43:14;;;;;;;3.35;1.55;;;15.30;99.90;;;;;;2075714;28;20446;-69
2022/07/04 03:44:15;;;;;;;3.28;1.70;;;15.30;99.90;;;;;;2078529;28;20021;-69
2022/07/04 03:45:16;;;;;;;4.50;1.88;;;15.30;99.90;;;;;;2075005;28;20048;-69
2022/07/04 03:46:16;;;;;;;3.78;1.80;;;15.30;99.90;;;;;;2075552;28;20026;-69
2022/07/04 03:47:17;;;;;;;3.13;2.10;;;15.30;99.90;;;;;;2076338;28;20027;-70
2022/07/04 03:48:17;;;;;;;3.53;1.88;;;15.30;99.90;;;;;;2076588;28;20038;-69
2022/07/04 03:49:18;;;;;;;2.85;1.60;;;15.30;99.90;;;;;;2077397;28;20021;-69
2022/07/04 03:50:19;;;;;;;2.80;1.80;;;15.30;99.90;;;;;;2077051;28;20052;-69
2022/07/04 03:51:19;;;;;;;3.63;2.00;;;15.30;99.90;;;;;;2077683;28;20030;-69
2022/07/04 03:52:20;;;;;;;2.92;2.33;;;15.30;99.90;;;;;;2077677;28;20108;-69
2022/07/04 03:53:20;;;;;;;2.13;1.70;;;15.30;99.90;;;;;;2075428;28;20033;-69
2022/07/04 03:54:21;;;;;;;3.70;1.92;;;15.20;99.90;;;;;;2076785;28;20550;-69
2022/07/04 03:55:22;;;;;;;2.78;1.92;;;15.20;99.90;;;;;;2078572;28;20096;-69
2022/07/04 03:56:22;;;;;;;4.05;2.03;;;15.20;99.90;;;;;;2075904;28;20068;-69
2022/07/04 03:57:23;;;;;;;2.40;1.80;;;15.20;99.90;;;;;;2075357;28;20025;-69
2022/07/04 03:58:24;;;;;;;2.50;1.92;;;15.20;99.90;;;;;;2075515;28;20065;-69
2022/07/04 03:59:24;;;;;;;3.58;2.08;;;15.20;99.90;;;;;;2075340;28;20028;-69
2022/07/04 04:00:25;;;;;;;3.75;2.10;;;15.20;99.90;;;;;;2078362;28;20018;-69
2022/07/04 04:01:25;;;;;;;2.38;1.90;;;15.20;99.90;;;;;;2075640;28;20028;-69
2022/07/04 04:02:26;;;;;;;3.25;2.05;;;15.30;99.90;;;;;;2074865;28;20478;-69
2022/07/04 04:06:05;;;;;;;3.33;2.17;;;15.50;99.90;;;;;;2075781;28;20385;-69
2022/07/04 04:07:06;;;;;;;3.53;1.95;;;15.60;99.90;;;;;;2078029;28;20025;-69
2022/07/04 04:08:06;;;;;;;2.35;1.63;;;15.70;99.90;;;;;;2076759;28;20063;-69
2022/07/04 04:09:12;;;;;;;6.13;2.22;;;15.80;99.90;;;;;;2075023;28;20025;-69
2022/07/04 04:10:12;;;;;;;7.40;1.70;;;15.90;99.90;;;;;;2077105;28;20045;-69
2022/07/04 04:11:13;;;;;;;5.65;2.00;;;16.00;99.90;;;;;;2079239;28;20489;-69
2022/07/04 04:12:14;;;;;;;5.03;1.98;;;16.20;99.90;;;;;;2076110;28;20045;-69
2022/07/04 04:13:14;;;;;;;1.70;1.52;;;16.30;99.90;;;;;;2076153;28;20063;-69
2022/07/04 04:14:15;;;;;;;3.40;1.90;;;16.40;99.90;;;;;;2077286;28;20083;-69
2022/07/04 04:15:16;;;;;;;3.08;2.28;;;16.60;99.90;;;;;;2076039;28;20101;-69
2022/07/04 04:16:16;;;;;;;3.38;2.15;;;16.70;99.90;;;;;;2078346;28;20128;-69
2022/07/04 04:17:17;;;;;;;4.55;2.00;;;16.90;99.90;;;;;;2076094;28;20061;-69
2022/07/04 04:18:17;;;;;;;3.38;2.00;;;17.20;99.90;;;;;;2075576;28;20625;-69
2022/07/04 04:19:18;;;;;;;3.92;1.80;;;17.40;99.90;;;;;;2076147;28;20017;-69
2022/07/04 04:20:19;;;;;;;3.42;2.13;;;17.60;99.90;;;;;;2078252;28;20053;-69
2022/07/04 04:21:19;;;;;;;4.65;2.15;;;17.90;99.90;;;;;;2077793;28;20022;-69
2022/07/04 04:22:20;;;;;;;2.03;1.90;;;18.10;99.90;;;;;;2079489;28;20032;-69
2022/07/04 04:23:21;;;;;;;2.63;1.52;;;18.30;99.90;;;;;;2077578;28;20034;-69
2022/07/04 04:24:21;;;;;;;3.90;2.10;;;18.50;99.90;;;;;;2078136;28;20036;-69
2022/07/04 04:25:22;;;;;;;4.38;2.20;;;18.80;99.90;;;;;;2076041;28;20033;-69
2022/07/04 04:26:22;;;;;;;2.85;2.03;;;19.00;99.90;;;;;;2077202;28;20251;-69
2022/07/04 04:27:23;;;;;;;2.97;2.25;;;19.20;99.90;;;;;;2079562;28;20037;-69
2022/07/04 04:28:24;;;;;;;3.38;2.15;;;19.40;99.90;;;;;;2079658;28;20379;-69
2022/07/04 04:29:24;;;;;;;4.70;1.92;;;19.60;99.50;;;;;;2074386;28;20076;-69
2022/07/04 04:30:25;;;;;;;2.92;1.98;;;19.70;97.30;;;;;;2078294;28;20028;-69
2022/07/04 04:31:26;;;;;;;5.25;2.50;;;19.80;98.00;;;;;;2077728;28;20048;-69
2022/07/04 04:32:26;;;;;;;5.03;2.10;;;19.80;98.20;;;;;;2077746;28;20729;-70
2022/07/04 04:33:27;;;;;;;6.40;2.25;;;19.80;98.60;;;;;;2075504;28;20062;-69
2022/07/04 04:34:28;;;;;;;4.18;2.20;;;19.70;98.80;;;;;;2077952;28;20079;-70
2022/07/04 04:35:28;;;;;;;3.55;2.40;;;19.70;99.00;;;;;;2076797;28;20033;-69
2022/07/04 04:36:29;;;;;;;3.55;2.38;;;19.60;99.60;;;;;;2076485;28;20026;-69
2022/07/04 04:37:29;;;;;;;6.72;2.58;;;19.50;99.50;;;;;;2076367;28;20429;-69
2022/07/04 04:38:30;;;;;;;5.72;2.70;;;19.50;99.90;;;;;;2075809;28;20026;-69
2022/07/04 04:39:31;;;;;;;4.95;2.42;;;19.50;99.90;;;;;;2077170;28;20168;-69
2022/07/04 04:40:31;;;;;;;5.10;2.42;;;19.40;99.90;;;;;;2076501;28;20030;-69
2022/07/04 04:41:32;;;;;;;4.75;2.72;;;19.50;99.90;;;;;;2075592;28;20095;-69
2022/07/04 04:42:32;;;;;;;4.55;2.33;;;19.40;99.90;;;;;;2079147;28;20030;-70
2022/07/04 04:43:33;;;;;;;7.22;2.63;;;19.50;99.90;;;;;;2078895;28;20107;-69
2022/07/04 04:44:34;;;;;;;3.75;2.25;;;19.50;99.90;;;;;;2076684;28;20026;-69
2022/07/04 04:45:34;;;;;;;3.38;2.08;;;19.50;99.90;;;;;;2074286;28;20029;-69
2022/07/04 04:46:35;;;;;;;3.53;2.33;;;19.60;99.90;;;;;;2075703;28;20120;-70
2022/07/04 04:47:35;;;;;;;5.07;2.30;;;19.60;99.90;;;;;;2076227;28;20484;-70
2022/07/04 04:48:36;;;;;;;8.82;3.20;;;19.70;99.90;;;;;;2076976;28;20029;-70
2022/07/04 04:49:36;;;;;;;5.82;2.63;;;19.70;99.90;;;;;;2078034;28;20045;-69
2022/07/04 04:50:37;;;;;;;3.28;2.22;;;19.70;99.90;;;;;;2077554;28;20036;-69
2022/07/04 04:51:38;;;;;;;6.55;2.38;;;19.80;99.90;;;;;;2076646;28;20060;-70
2022/07/04 04:52:39;;;;;;;5.40;2.67;;;19.90;99.90;;;;;;2076845;28;20030;-70
2022/07/04 04:53:39;;;;;;;2.83;2.30;;;19.90;99.90;;;;;;2075343;28;20405;-70
2022/07/04 04:54:40;;;;;;;4.28;2.42;;;20.00;99.90;;;;;;2076542;28;20033;-70
2022/07/04 04:55:40;;;;;;;6.57;2.50;;;20.00;99.90;;;;;;2077582;28;20021;-70
2022/07/04 04:56:41;;;;;;;6.13;2.97;;;20.10;99.90;;;;;;2078602;28;20033;-69
2022/07/04 04:57:42;;;;;;;7.03;2.45;;;20.10;99.90;;;;;;2078457;28;20021;-69
2022/07/04 04:58:42;;;;;;;5.38;2.47;;;20.20;99.90;;;;;;2077644;28;20013;-69
2022/07/04 04:59:43;;;;;;;4.70;2.60;;;20.20;99.90;;;;;;2077903;28;20408;-69
2022/07/04 05:00:43;;;;;;;5.75;2.72;;;20.30;99.90;;;;;;2079255;28;20501;-69
2022/07/04 05:01:44;;;;;;;4.18;2.30;;;20.30;99.90;;;;;;2080239;28;20028;-69
2022/07/04 05:02:45;;;;;;;4.85;2.58;;;20.40;99.90;;;;;;2079408;28;20021;-69
2022/07/04 05:03:45;;;;;;;6.10;3.00;;;20.50;99.90;;;;;;2076738;28;20087;-70
2022/07/04 05:04:46;;;;;;;5.55;3.08;;;20.50;99.90;;;;;;2079259;28;20488;-69
2022/07/04 05:05:47;;;;;;;8.65;3.35;;;20.60;99.90;;;;;;2079665;28;20022;-69
2022/07/04 05:06:47;;;;;;;6.70;2.70;;;20.70;99.90;;;;;;2078025;28;20018;-70
2022/07/04 05:07:48;;;;;;;7.70;3.70;;;20.70;99.90;;;;;;2078998;28;20040;-70
2022/07/04 05:08:49;;;;;;;7.68;3.55;;;20.80;99.90;;;;;;2077152;28;20029;-70
2022/07/04 05:09:49;;;;;;;4.88;3.00;;;20.90;99.90;;;;;;2079111;28;20033;-70
2022/07/04 05:10:50;;;;;;;5.47;2.50;;;20.90;99.20;;;;;;2077541;28;20025;-70
2022/07/04 05:11:51;;;;;;;7.72;3.50;;;21.00;99.00;;;;;;2078723;28;20370;-70
2022/07/04 05:12:51;;;;;;;7.15;3.70;;;21.10;98.40;;;;;;2079300;28;20029;-70
2022/07/04 05:13:52;;;;;;;7.38;3.00;;;21.20;98.80;;;;;;2081051;28;20470;-70
2022/07/04 05:14:54;;;;;;;3.72;2.70;;;21.20;98.80;;;;;;2078098;28;20021;-69
2022/07/04 05:15:54;;;;;;;4.82;3.13;;;21.30;98.40;;;;;;2080438;28;20061;-70
2022/07/04 05:16:55;;;;;;;6.82;3.53;;;21.40;97.80;;;;;;2080660;28;20026;-69
2022/07/04 05:17:55;;;;;;;6.28;3.53;;;21.40;98.30;;;;;;2079668;28;20033;-69
2022/07/04 05:18:56;;;;;;;5.97;3.10;;;21.50;98.10;;;;;;2076050;28;20026;-69
2022/07/04 05:19:57;;;;;;;8.98;3.75;;;21.60;97.80;;;;;;2078677;28;20025;-70
2022/07/04 05:20:59;;;;;;;7.72;3.33;;;21.60;97.70;;;;;;2079468;28;20045;-69
2022/07/04 05:21:59;;;;;;;4.97;3.28;;;21.70;96.20;;;;;;2077547;28;20021;-70
2022/07/04 05:23:00;;;;;;;5.72;3.58;;;21.80;96.00;;;;;;2077885;28;20078;-69
2022/07/04 05:24:00;;;;;;;4.85;3.42;;;21.90;95.60;;;;;;2079174;28;20026;-70
2022/07/04 05:25:01;;;;;;;7.25;3.97;;;21.90;94.60;;;;;;2077089;28;20040;-70
2022/07/04 05:26:02;;;;;;;7.45;3.63;;;22.00;94.10;;;;;;2077437;28;20055;-70
2022/07/04 05:27:03;;;;;;;8.70;4.30;;;22.10;94.10;;;;;;2076323;28;20232;-70
2022/07/04 05:28:04;;;;;;;7.00;3.83;;;22.10;94.20;;;;;;2076768;28;20091;-70
2022/07/04 05:29:04;;;;;;;8.25;4.50;;;22.20;94.10;;;;;;2075079;28;20088;-70
2022/07/04 05:30:05;;;;;;;7.18;4.05;;;22.20;93.20;;;;;;2080252;28;20025;-69
2022/07/04 05:31:06;;;;;;;9.40;4.20;;;22.30;92.20;;;;;;2079531;28;20032;-70
2022/07/04 05:32:07;;;;;;;6.30;4.07;;;22.40;92.20;;;;;;2080572;28;20026;-70